Time;durP1;ratioP1;P1;durP2;ratioP2;P2;SDS_P1;SDS_P2;PMS_P1;PMS_P2;Temp;Humidity;BMP_temperature;BMP_pressure;BME280_temperature;BME280_humidity;BME280_pressure;Samples;Min_cycle;Max_cycle;Signal;HPM_P1;HPM_P2
2022/01/24 00:01:26;;;;;;;15.32;8.95;;;;;;;-0.95;100.00;96450.09;5014563;28;20484;-66
2022/01/24 00:03:57;;;;;;;17.13;9.00;;;;;;;-0.94;100.00;96454.34;5032196;28;20116;-66
2022/01/24 00:06:26;;;;;;;15.90;9.63;;;;;;;-0.94;100.00;96455.19;5036130;28;20112;-66
2022/01/24 00:08:52;;;;;;;16.55;8.93;;;;;;;-0.94;100.00;96449.91;5034808;28;20527;-67
2022/01/24 00:11:22;;;;;;;16.98;9.32;;;;;;;-0.91;100.00;96456.66;5033094;28;20040;-66
2022/01/24 00:27:16;;;;;;;17.35;9.75;;;;;;;-0.86;100.00;96458.84;5043404;28;20060;-67
2022/01/24 00:29:42;;;;;;;15.95;9.65;;;;;;;-0.86;100.00;96456.19;5014684;28;20049;-66
2022/01/24 00:32:07;;;;;;;15.52;9.35;;;;;;;-0.85;100.00;96463.09;5023300;28;20036;-66
2022/01/24 00:34:33;;;;;;;16.55;9.23;;;;;;;-0.86;100.00;96459.66;5032134;28;20128;-66
2022/01/24 00:36:58;;;;;;;15.07;9.32;;;;;;;-0.86;100.00;96459.66;5022666;28;20028;-66
2022/01/24 00:39:27;;;;;;;15.63;9.20;;;;;;;-0.84;100.00;96452.41;5052208;28;20526;-67
2022/01/24 00:47:23;;;;;;;15.68;9.10;;;;;;;-0.85;100.00;96448.16;5052143;28;20486;-67
2022/01/24 00:55:28;;;;;;;14.60;8.75;;;;;;;-0.86;100.00;96453.56;5043943;28;20084;-68
2022/01/24 00:57:53;;;;;;;14.98;9.15;;;;;;;-0.84;100.00;96454.22;5013257;28;20495;-66
2022/01/24 01:00:21;;;;;;;16.42;9.25;;;;;;;-0.84;100.00;96441.91;5033960;28;20028;-66
2022/01/24 01:02:52;;;;;;;16.48;8.88;;;;;;;-0.84;100.00;96433.19;4997896;28;20048;-67
2022/01/24 01:18:04;;;;;;;15.60;8.80;;;;;;;-0.84;100.00;96435.81;5015704;28;20041;-66
2022/01/24 01:19:05;;;;;;;14.68;8.68;;;;;;;-0.85;100.00;96428.91;5042668;28;20056;-67
2022/01/24 01:21:30;;;;;;;16.75;8.85;;;;;;;-0.85;100.00;96429.72;5031628;28;20084;-66
2022/01/24 01:23:56;;;;;;;14.82;8.93;;;;;;;-0.84;100.00;96436.63;5013025;28;20492;-66
2022/01/24 01:26:40;;;;;;;16.88;9.18;;;;;;;-0.82;100.00;96433.84;5031457;28;20053;-67
2022/01/24 01:29:20;;;;;;;15.93;9.02;;;;;;;-0.83;100.00;96437.47;5031291;28;20411;-67
2022/01/24 01:31:56;;;;;;;13.95;9.00;;;;;;;-0.86;100.00;96432.53;5031422;28;20104;-67
2022/01/24 01:56:07;;;;;;;16.75;9.38;;;;;;;-0.89;100.00;96423.13;5050180;28;20021;-67
2022/01/24 01:58:33;;;;;;;14.40;8.73;;;;;;;-0.91;100.00;96419.84;5032929;28;20071;-67
2022/01/24 02:01:10;;;;;;;13.15;8.45;;;;;;;-0.98;100.00;96418.81;5050291;28;20053;-67
2022/01/24 02:03:36;;;;;;;15.73;8.82;;;;;;;-1.05;100.00;96418.66;5050449;28;20021;-67
2022/01/24 02:06:02;;;;;;;14.73;8.80;;;;;;;-1.07;100.00;96425.06;5049679;28;20035;-67
2022/01/24 02:08:30;;;;;;;16.77;9.00;;;;;;;-1.08;100.00;96412.91;5036568;28;20032;-67
2022/01/24 02:10:56;;;;;;;14.40;8.60;;;;;;;-1.11;100.00;96413.19;5017080;28;20025;-65
2022/01/24 02:13:26;;;;;;;14.27;8.60;;;;;;;-1.15;100.00;96417.16;5027414;28;20032;-67
2022/01/24 02:23:46;;;;;;;15.10;9.10;;;;;;;-1.35;100.00;96414.78;5033999;28;20060;-65
2022/01/24 02:26:18;;;;;;;14.52;8.93;;;;;;;-1.37;100.00;96421.16;5020454;28;20056;-67
2022/01/24 02:29:04;;;;;;;16.13;9.38;;;;;;;-1.38;100.00;96414.28;5034578;28;20025;-67
2022/01/24 02:31:41;;;;;;;14.45;8.88;;;;;;;-1.38;100.00;96407.22;5043272;28;20037;-67
2022/01/24 02:34:34;;;;;;;15.45;8.63;;;;;;;-1.36;100.00;96414.94;5016092;28;20025;-66
2022/01/24 02:37:04;;;;;;;16.20;8.98;;;;;;;-1.36;100.00;96413.13;5038512;28;20104;-66
2022/01/24 02:50:50;;;;;;;15.25;8.80;;;;;;;-1.23;100.00;96423.19;5041853;28;20094;-67
2022/01/24 02:53:18;;;;;;;16.50;9.10;;;;;;;-1.22;100.00;96419.56;5043259;28;20028;-67
2022/01/24 02:55:44;;;;;;;15.60;8.70;;;;;;;-1.20;100.00;96423.69;5037236;28;20112;-66
2022/01/24 02:58:15;;;;;;;16.20;9.18;;;;;;;-1.19;100.00;96422.72;5026134;28;20440;-66
2022/01/24 03:00:41;;;;;;;17.63;10.05;;;;;;;-1.16;100.00;96418.94;5049638;28;20033;-66
2022/01/24 03:03:07;;;;;;;16.90;9.68;;;;;;;-1.15;100.00;96417.16;5044198;28;20031;-66
2022/01/24 03:05:32;;;;;;;16.70;9.48;;;;;;;-1.14;100.00;96413.53;5053609;28;20057;-67
2022/01/24 03:08:00;;;;;;;13.43;8.65;;;;;;;-1.14;100.00;96416.16;5049566;28;20063;-66
2022/01/24 03:10:30;;;;;;;15.52;8.90;;;;;;;-1.12;100.00;96408.94;5053447;28;20040;-67
2022/01/24 03:15:43;;;;;;;17.00;10.05;;;;;;;-1.12;100.00;96408.94;5039888;28;20390;-67
2022/01/24 03:18:12;;;;;;;15.00;8.15;;;;;;;-1.11;100.00;96397.44;5034788;28;20025;-67
2022/01/24 03:20:38;;;;;;;16.48;9.45;;;;;;;-1.10;100.00;96404.34;5039840;28;20056;-67
2022/01/24 03:23:04;;;;;;;16.58;9.85;;;;;;;-1.09;100.00;96400.72;5053122;28;20418;-67
2022/01/24 03:25:30;;;;;;;16.67;9.30;;;;;;;-1.10;100.00;96396.44;5046558;28;20032;-67
2022/01/24 03:27:56;;;;;;;15.48;9.70;;;;;;;-1.09;100.00;96392.81;5035347;28;20372;-67
2022/01/24 03:30:22;;;;;;;15.48;9.05;;;;;;;-1.09;100.00;96390.19;5051361;28;20414;-67
2022/01/24 03:32:47;;;;;;;18.70;10.40;;;;;;;-1.08;100.00;96391.88;5039737;28;20529;-67
2022/01/24 03:35:13;;;;;;;16.00;8.88;;;;;;;-1.09;100.00;96398.09;5031950;28;20136;-67
2022/01/24 03:37:41;;;;;;;16.30;10.32;;;;;;;-1.08;100.00;96397.13;5043323;28;20503;-67
2022/01/24 03:40:13;;;;;;;18.45;10.27;;;;;;;-1.11;100.00;96405.31;5035309;28;20086;-66
2022/01/24 03:42:38;;;;;;;16.20;9.25;;;;;;;-1.15;100.00;96402.19;5050706;28;20541;-67
2022/01/24 03:45:07;;;;;;;16.90;9.73;;;;;;;-1.13;100.00;96392.34;5035131;28;20032;-65
2022/01/24 03:50:17;;;;;;;16.98;10.10;;;;;;;-1.15;100.00;96398.75;5052303;28;20522;-66
2022/01/24 03:52:46;;;;;;;17.73;9.75;;;;;;;-1.14;100.00;96397.75;5052539;28;20036;-67
2022/01/24 03:55:15;;;;;;;18.05;9.25;;;;;;;-1.12;100.00;96387.91;5050292;28;20029;-66
2022/01/24 03:57:40;;;;;;;17.83;9.75;;;;;;;-1.15;100.00;96396.94;5021768;28;20119;-67
2022/01/24 04:00:09;;;;;;;16.85;10.00;;;;;;;-1.15;100.00;96396.94;5052289;28;20107;-67
2022/01/24 04:02:37;;;;;;;14.98;9.50;;;;;;;-1.16;100.00;96395.28;5052364;28;20025;-66
2022/01/24 04:05:03;;;;;;;17.75;9.82;;;;;;;-1.16;100.00;96397.91;5052440;28;20029;-67
2022/01/24 04:07:32;;;;;;;16.55;10.10;;;;;;;-1.17;100.00;96396.28;5046613;28;20029;-67
2022/01/24 04:10:03;;;;;;;15.95;9.73;;;;;;;-1.17;100.00;96396.28;5052794;28;20032;-66
2022/01/24 04:12:34;;;;;;;20.85;10.48;;;;;;;-1.19;100.00;96393.81;5038314;28;20025;-68
2022/01/24 04:17:47;;;;;;;17.70;10.02;;;;;;;-1.20;100.00;96397.41;5052421;28;20094;-67
2022/01/24 04:23:01;;;;;;;18.05;10.20;;;;;;;-1.23;100.00;96400.34;5052014;28;20107;-66
2022/01/24 04:25:29;;;;;;;17.38;10.27;;;;;;;-1.23;100.00;96392.47;5026292;28;20028;-66
2022/01/24 04:27:55;;;;;;;19.63;10.90;;;;;;;-1.23;100.00;96402.16;5046399;28;20491;-67
2022/01/24 04:30:26;;;;;;;18.27;10.63;;;;;;;-1.22;100.00;96393.28;5050569;28;20075;-67
2022/01/24 04:32:52;;;;;;;18.60;10.25;;;;;;;-1.23;100.00;96386.38;5020160;28;20021;-67
2022/01/24 04:35:17;;;;;;;18.00;10.27;;;;;;;-1.24;100.00;96390.81;5051990;28;20051;-67
2022/01/24 04:37:43;;;;;;;18.58;10.35;;;;;;;-1.24;100.00;96393.44;5050106;28;20108;-67
2022/01/24 04:40:11;;;;;;;16.63;9.52;;;;;;;-1.22;100.00;96388.84;5034530;28;20029;-67
2022/01/24 04:51:06;;;;;;;16.20;9.90;;;;;;;-1.23;100.00;96402.97;5046728;28;20032;-67
2022/01/24 04:56:09;;;;;;;19.77;11.05;;;;;;;-1.24;100.00;96403.16;5037950;28;20487;-67
2022/01/24 04:58:34;;;;;;;18.35;11.15;;;;;;;-1.24;100.00;96400.50;5052093;28;20123;-67
2022/01/24 05:00:59;;;;;;;15.30;9.88;;;;;;;-1.24;100.00;96403.97;5026551;28;20544;-67
2022/01/24 05:03:25;;;;;;;18.70;10.20;;;;;;;-1.23;100.00;96405.63;5043825;28;20091;-68
2022/01/24 05:05:52;;;;;;;18.73;10.82;;;;;;;-1.23;100.00;96407.41;5033415;28;20029;-67
2022/01/24 05:08:17;;;;;;;21.90;11.13;;;;;;;-1.24;100.00;96405.78;5029097;28;20028;-66
2022/01/24 05:11:08;;;;;;;19.67;10.70;;;;;;;-1.26;100.00;96399.84;5033726;28;20029;-67
2022/01/24 05:24:37;;;;;;;18.33;10.43;;;;;;;-1.30;100.00;96395.91;5050215;28;20029;-67
2022/01/24 05:27:03;;;;;;;18.40;10.73;;;;;;;-1.30;100.00;96398.53;5051114;28;20544;-67
2022/01/24 05:29:28;;;;;;;20.25;10.75;;;;;;;-1.30;100.00;96398.53;5051370;28;20037;-67
2022/01/24 05:31:56;;;;;;;21.35;10.95;;;;;;;-1.31;100.00;96396.88;5023863;28;20021;-67
2022/01/24 05:34:22;;;;;;;17.67;10.80;;;;;;;-1.31;100.00;96410.00;5032950;28;20648;-67
2022/01/24 05:36:48;;;;;;;18.85;11.02;;;;;;;-1.33;100.00;96401.47;5044361;23;20526;-67
2022/01/24 05:39:18;;;;;;;19.15;10.75;;;;;;;-1.34;100.00;96403.28;5013113;28;20033;-67
2022/01/24 05:41:43;;;;;;;20.10;10.65;;;;;;;-1.35;100.00;96399.00;5030881;28;20033;-68
2022/01/24 05:44:13;;;;;;;19.88;11.50;;;;;;;-1.36;100.00;96402.63;5029575;28;20104;-68
2022/01/24 05:46:39;;;;;;;20.17;11.30;;;;;;;-1.35;100.00;96406.06;5031090;28;20060;-68
2022/01/24 05:49:04;;;;;;;21.73;11.63;;;;;;;-1.36;100.00;96410.50;5014970;28;20057;-68
2022/01/24 05:51:30;;;;;;;20.30;11.95;;;;;;;-1.35;100.00;96408.69;5031055;28;20025;-68
2022/01/24 05:53:56;;;;;;;23.90;12.43;;;;;;;-1.38;100.00;96409.00;5029514;28;20043;-67
2022/01/24 05:56:39;;;;;;;20.30;12.23;;;;;;;-1.36;100.00;96413.13;4990583;28;20021;-68
2022/01/24 05:59:05;;;;;;;25.50;12.70;;;;;;;-1.36;100.00;96421.00;5030907;28;20036;-68
2022/01/24 06:01:30;;;;;;;21.25;12.23;;;;;;;-1.37;100.00;96413.28;5025298;28;20029;-68
2022/01/24 06:03:56;;;;;;;24.45;12.65;;;;;;;-1.39;100.00;96413.44;5030570;28;20048;-67
2022/01/24 06:06:21;;;;;;;23.55;12.55;;;;;;;-1.38;100.00;96415.09;5009136;28;20078;-68
2022/01/24 06:08:49;;;;;;;20.50;12.68;;;;;;;-1.37;100.00;96422.00;5009195;28;20369;-67
2022/01/24 06:11:17;;;;;;;21.08;12.38;;;;;;;-1.35;100.00;96413.94;5013402;28;20026;-68
2022/01/24 06:14:06;;;;;;;22.67;13.00;;;;;;;-1.34;100.00;96415.59;4993048;28;20033;-68
2022/01/24 06:16:33;;;;;;;21.48;11.55;;;;;;;-1.35;100.00;96414.78;5012755;28;20128;-67
2022/01/24 06:19:05;;;;;;;21.88;12.15;;;;;;;-1.35;100.00;96417.41;5025134;28;20037;-67
2022/01/24 06:21:30;;;;;;;26.55;13.45;;;;;;;-1.34;100.00;96423.47;4996500;28;20064;-68
2022/01/24 06:23:55;;;;;;;22.85;13.07;;;;;;;-1.34;100.00;96423.47;5012279;28;20506;-66
2022/01/24 06:26:21;;;;;;;22.95;13.00;;;;;;;-1.36;100.00;96426.25;5004376;28;20121;-68
2022/01/24 06:28:46;;;;;;;23.65;11.98;;;;;;;-1.36;100.00;96425.44;5028595;28;20476;-67
2022/01/24 06:31:15;;;;;;;23.00;12.60;;;;;;;-1.39;100.00;96420.50;5017769;28;20029;-68
2022/01/24 06:33:40;;;;;;;25.27;12.70;;;;;;;-1.40;100.00;96426.75;4994645;28;20025;-66
2022/01/24 06:36:10;;;;;;;23.65;12.93;;;;;;;-1.41;100.00;96430.34;4996141;28;20136;-68
2022/01/24 06:38:39;;;;;;;22.20;12.35;;;;;;;-1.41;100.00;96438.22;5009772;28;20068;-68
2022/01/24 06:41:04;;;;;;;25.40;13.23;;;;;;;-1.41;100.00;96431.19;5030741;28;20056;-68
2022/01/24 06:43:30;;;;;;;23.80;13.23;;;;;;;-1.40;100.00;96437.25;5019340;28;20409;-67
2022/01/24 06:46:03;;;;;;;24.25;12.80;;;;;;;-1.40;100.00;96438.09;4997245;28;20025;-66
2022/01/24 06:48:28;;;;;;;;;;;;;;;-1.40;100.00;96445.16;5007509;28;20029;-68
2022/01/24 06:50:57;;;;;;;21.13;12.38;;;;;;;-1.40;100.00;96448.59;5006096;28;19909;-68
2022/01/24 06:53:25;;;;;;;25.23;13.63;;;;;;;-1.40;100.00;96453.84;5004853;28;20705;-68
2022/01/24 06:55:50;;;;;;;26.33;14.15;;;;;;;-1.40;100.00;96459.13;5029556;28;20128;-68
2022/01/24 06:58:18;;;;;;;22.50;12.93;;;;;;;-1.38;100.00;96458.94;5033157;28;20144;-68
2022/01/24 07:00:43;;;;;;;25.13;13.65;;;;;;;-1.39;100.00;96467.81;5027095;28;20030;-68
2022/01/24 07:03:09;;;;;;;23.25;12.88;;;;;;;-1.40;100.00;96472.25;5034065;28;20026;-68
2022/01/24 07:05:34;;;;;;;24.67;13.55;;;;;;;-1.39;100.00;96478.34;5016018;28;20025;-68
2022/01/24 07:08:02;;;;;;;21.13;12.63;;;;;;;-1.43;100.00;96477.78;5022243;28;20053;-67
2022/01/24 07:10:28;;;;;;;23.55;13.10;;;;;;;-1.42;100.00;96476.00;5034021;28;20041;-68
2022/01/24 07:12:56;;;;;;;24.58;14.27;;;;;;;-1.42;100.00;96482.06;5014411;28;20030;-68
2022/01/24 07:15:29;;;;;;;27.08;14.07;;;;;;;-1.40;100.00;96476.69;5029428;28;20029;-67
2022/01/24 07:20:29;;;;;;;25.55;14.02;;;;;;;-1.36;100.00;96478.84;5022423;28;20057;-68
2022/01/24 07:22:55;;;;;;;23.15;13.27;;;;;;;-1.34;100.00;96487.38;5014214;28;20021;-68
2022/01/24 07:25:21;;;;;;;23.77;13.82;;;;;;;-1.34;100.00;96486.56;5010825;28;20026;-67
2022/01/24 07:27:49;;;;;;;26.00;13.70;;;;;;;-1.35;100.00;96480.47;4982010;28;20029;-67
2022/01/24 07:30:14;;;;;;;28.30;14.10;;;;;;;-1.34;100.00;96491.81;4986870;28;20022;-68
2022/01/24 07:32:42;;;;;;;25.77;15.18;;;;;;;-1.34;100.00;96487.38;4978447;28;20384;-68
2022/01/24 07:35:12;;;;;;;26.23;14.40;;;;;;;-1.35;100.00;96487.53;4906203;28;20779;-68
2022/01/24 07:37:38;;;;;;;24.80;13.90;;;;;;;-1.36;100.00;96497.22;5007497;28;20065;-68
2022/01/24 07:40:06;;;;;;;24.02;14.20;;;;;;;-1.36;100.00;96505.13;4992466;28;20049;-67
2022/01/24 07:42:56;;;;;;;23.92;14.27;;;;;;;-1.34;100.00;96510.22;4996367;28;20060;-67
2022/01/24 07:45:24;;;;;;;24.63;14.15;;;;;;;-1.33;100.00;96507.41;5013208;28;20037;-67
2022/01/24 07:47:50;;;;;;;31.65;16.30;;;;;;;-1.31;100.00;96509.88;5012242;28;20050;-67
2022/01/24 07:50:22;;;;;;;26.80;15.45;;;;;;;-1.31;100.00;96508.09;5012285;28;20029;-68
2022/01/24 07:52:50;;;;;;;25.75;15.18;;;;;;;-1.31;100.00;96504.63;5013059;28;20037;-67
2022/01/24 07:55:17;;;;;;;23.58;14.15;;;;;;;-1.32;100.00;96509.06;5004759;28;20034;-68
2022/01/24 07:57:43;;;;;;;27.90;14.18;;;;;;;-1.31;100.00;96515.16;5013456;28;20476;-68
2022/01/24 08:00:10;;;;;;;24.13;13.82;;;;;;;-1.31;100.00;96509.88;5010525;28;20040;-67
2022/01/24 08:02:37;;;;;;;25.73;14.50;;;;;;;-1.29;100.00;96510.59;5013331;28;20381;-68
2022/01/24 08:05:02;;;;;;;25.90;14.73;;;;;;;-1.28;100.00;96513.06;5011588;28;20380;-67
2022/01/24 08:07:30;;;;;;;24.17;13.77;;;;;;;-1.29;100.00;96510.59;5017695;28;20022;-68
2022/01/24 08:09:55;;;;;;;25.23;13.73;;;;;;;-1.30;100.00;96508.94;4994728;28;20168;-68
2022/01/24 08:12:24;;;;;;;23.55;13.80;;;;;;;-1.29;100.00;96510.59;4999523;28;20113;-67
2022/01/24 08:14:49;;;;;;;26.02;14.38;;;;;;;-1.29;100.00;96518.47;5006564;28;20037;-67
2022/01/24 08:17:15;;;;;;;24.50;13.50;;;;;;;-1.29;100.00;96516.66;4993300;28;20038;-67
2022/01/24 08:19:45;;;;;;;25.90;13.95;;;;;;;-1.26;100.00;96529.47;5011733;28;20041;-68
2022/01/24 08:22:13;;;;;;;23.98;13.57;;;;;;;-1.28;100.00;96517.50;5001850;28;20030;-68
2022/01/24 08:24:41;;;;;;;27.00;14.13;;;;;;;-1.27;100.00;96516.50;4993120;28;20057;-66
2022/01/24 08:27:06;;;;;;;23.90;13.50;;;;;;;-1.27;100.00;96509.44;4994978;28;20145;-68
2022/01/24 08:29:31;;;;;;;24.17;13.10;;;;;;;-1.28;100.00;96513.06;4995872;28;20457;-68
2022/01/24 08:31:57;;;;;;;26.00;13.88;;;;;;;-1.27;100.00;96519.13;5005803;28;20026;-67
2022/01/24 08:34:25;;;;;;;28.58;14.32;;;;;;;-1.29;100.00;96521.09;5011249;28;20026;-68
2022/01/24 08:36:50;;;;;;;25.02;13.57;;;;;;;-1.29;100.00;96524.53;5009916;28;20065;-68
2022/01/24 08:39:15;;;;;;;27.27;13.98;;;;;;;-1.27;100.00;96533.09;5012344;28;20559;-68
2022/01/24 08:42:08;;;;;;;;;;;;;;;;;;;;;
2022/01/24 08:44:33;;;;;;;27.20;14.55;;;;;;;-1.23;100.00;96529.16;5011667;28;20032;-68
2022/01/24 08:47:00;;;;;;;27.17;14.73;;;;;;;-1.22;100.00;96530.00;5012131;28;20071;-68
2022/01/24 08:49:27;;;;;;;26.45;14.52;;;;;;;-1.20;100.00;96535.91;5009760;28;20112;-68
2022/01/24 08:51:55;;;;;;;26.50;13.32;;;;;;;-1.25;100.00;96527.69;5012238;28;20034;-68
2022/01/24 08:54:20;;;;;;;25.30;13.57;;;;;;;-1.28;100.00;96535.88;5009770;28;20037;-68
2022/01/24 08:56:48;;;;;;;25.35;13.68;;;;;;;-1.32;100.00;96539.78;4997200;28;20416;-68
2022/01/24 08:59:13;;;;;;;28.88;14.30;;;;;;;-1.32;100.00;96543.25;4999618;28;20054;-68
2022/01/24 09:01:38;;;;;;;23.67;13.30;;;;;;;-1.27;100.00;96545.41;4995407;28;20081;-68
2022/01/24 09:04:06;;;;;;;25.98;13.80;;;;;;;-1.27;100.00;96543.63;5010594;28;20033;-69
2022/01/24 09:06:32;;;;;;;27.45;13.80;;;;;;;-1.27;100.00;96542.78;5007371;28;20053;-68
2022/01/24 09:09:04;;;;;;;27.45;14.13;;;;;;;-1.26;100.00;96537.38;5010906;28;20052;-69
2022/01/24 09:11:35;;;;;;;24.00;13.25;;;;;;;-1.22;100.00;96537.88;5013121;28;20029;-70
2022/01/24 09:14:03;;;;;;;25.88;13.27;;;;;;;-1.19;100.00;96538.41;5012000;28;20108;-68
2022/01/24 09:16:28;;;;;;;23.15;12.90;;;;;;;-1.19;100.00;96537.59;5007820;28;20026;-68
2022/01/24 09:18:54;;;;;;;25.70;12.48;;;;;;;-1.17;100.00;96533.81;5012183;28;20045;-69
2022/01/24 09:21:20;;;;;;;21.33;12.60;;;;;;;-1.15;100.00;96541.53;5017596;28;20060;-69
2022/01/24 09:23:48;;;;;;;24.25;13.75;;;;;;;-1.19;100.00;96537.59;5005795;28;20543;-69
2022/01/24 09:26:17;;;;;;;25.95;12.90;;;;;;;-1.17;100.00;96533.81;5013265;28;20080;-69
2022/01/24 09:28:43;;;;;;;25.65;13.20;;;;;;;-1.13;100.00;96531.69;5011038;28;20025;-69
2022/01/24 09:31:13;;;;;;;25.10;13.07;;;;;;;-1.09;100.00;96538.25;5010227;28;20028;-69
2022/01/24 09:33:39;;;;;;;24.98;13.40;;;;;;;-1.05;100.00;96533.53;5015220;28;20393;-67
2022/01/24 09:36:07;;;;;;;24.75;13.10;;;;;;;-1.00;100.00;96541.75;5015930;28;20107;-68
2022/01/24 09:38:37;;;;;;;25.35;13.02;;;;;;;-0.97;100.00;96552.81;5011693;28;20432;-69
2022/01/24 09:41:07;;;;;;;26.80;13.35;;;;;;;-0.94;100.00;96549.03;5014904;28;20057;-68
2022/01/24 09:43:32;;;;;;;22.88;12.32;;;;;;;-0.90;100.00;96551.19;5009254;28;20112;-69
2022/01/24 09:45:59;;;;;;;22.85;12.65;;;;;;;-0.88;100.00;96558.91;5012164;28;20121;-68
2022/01/24 09:48:25;;;;;;;23.65;12.88;;;;;;;-0.88;100.00;96541.31;5013702;28;20040;-69
2022/01/24 09:50:54;;;;;;;23.92;13.00;;;;;;;-0.92;100.00;96553.16;5012729;28;20507;-70
2022/01/24 09:53:21;;;;;;;23.17;12.38;;;;;;;-0.88;100.00;96551.03;4999734;28;20061;-69
2022/01/24 09:55:52;;;;;;;24.15;13.05;;;;;;;-0.94;100.00;96547.22;5002893;28;20026;-69
2022/01/24 09:58:21;;;;;;;24.75;12.20;;;;;;;-0.97;100.00;96549.38;5010937;28;20041;-70
2022/01/24 10:00:47;;;;;;;23.33;12.75;;;;;;;-1.00;100.00;96545.22;5009887;28;20101;-70
2022/01/24 10:03:13;;;;;;;23.33;12.55;;;;;;;-1.00;100.00;96550.47;5012115;28;20096;-69
2022/01/24 10:05:42;;;;;;;29.08;12.00;;;;;;;-0.92;100.00;96547.06;5010177;28;20033;-70
2022/01/24 10:08:14;;;;;;;22.63;12.98;;;;;;;-0.87;100.00;96544.78;4993367;28;20085;-70
2022/01/24 10:10:50;;;;;;;22.05;12.38;;;;;;;-0.86;100.00;96528.03;4995184;28;20038;-69
2022/01/24 10:19:15;;;;;;;22.73;12.50;;;;;;;-0.76;100.00;96528.75;5000525;28;20041;-70
2022/01/24 10:21:45;;;;;;;20.25;11.57;;;;;;;-0.74;100.00;96532.03;5009733;28;20023;-70
2022/01/24 10:24:26;;;;;;;21.70;11.93;;;;;;;-0.71;100.00;96533.50;4994850;28;20030;-69
2022/01/24 10:27:09;;;;;;;23.33;12.52;;;;;;;-0.69;100.00;96529.72;5011003;28;20062;-70
2022/01/24 10:29:39;;;;;;;22.75;12.45;;;;;;;-0.65;100.00;96530.25;5009531;28;20066;-69
2022/01/24 10:32:25;;;;;;;21.70;12.27;;;;;;;-0.65;100.00;96530.25;5015769;28;20022;-70
2022/01/24 10:34:50;;;;;;;23.92;12.93;;;;;;;-0.63;100.00;96523.03;5018571;28;20030;-71
2022/01/24 10:37:23;;;;;;;21.08;11.73;;;;;;;-0.59;100.00;96519.06;5008372;28;20041;-70
2022/01/24 10:39:58;;;;;;;;;;;;;;;-0.63;100.00;96510.69;5001607;28;20042;-69
2022/01/24 10:45:13;;;;;;;24.40;12.60;;;;;;;-0.67;100.00;96521.66;5016651;28;20036;-70
2022/01/24 10:47:49;;;;;;;20.45;11.80;;;;;;;-0.64;100.00;96514.31;5014866;28;20037;-69
2022/01/24 10:50:28;;;;;;;23.25;12.40;;;;;;;-0.62;100.00;96514.97;4998149;28;20054;-69
2022/01/24 10:52:54;;;;;;;22.00;11.93;;;;;;;-0.57;100.00;96513.66;4994990;28;20045;-70
2022/01/24 10:55:24;;;;;;;28.02;14.43;;;;;;;-0.53;100.00;96518.44;4994286;28;20112;-68
2022/01/24 10:57:56;;;;;;;22.50;12.70;;;;;;;-0.47;100.00;96512.53;4994328;28;20031;-68
2022/01/24 11:00:25;;;;;;;23.02;12.38;;;;;;;-0.44;100.00;96504.28;4992546;28;20524;-68
2022/01/24 11:02:52;;;;;;;21.42;12.05;;;;;;;-0.47;100.00;96506.44;4994835;28;20041;-68
2022/01/24 11:05:26;;;;;;;22.23;12.48;;;;;;;-0.44;100.00;96514.00;4994352;28;20041;-66
2022/01/24 11:08:00;;;;;;;21.02;12.25;;;;;;;-0.40;100.00;96502.19;5007525;28;20444;-68
2022/01/24 11:10:31;;;;;;;24.40;12.57;;;;;;;-0.34;100.00;96504.16;5014158;28;20218;-68
2022/01/24 11:13:04;;;;;;;22.10;12.13;;;;;;;-0.34;100.00;96501.53;5006408;28;20483;-67
2022/01/24 11:15:33;;;;;;;25.33;11.70;;;;;;;-0.39;100.00;96496.75;4996098;28;20037;-68
2022/01/24 11:18:00;;;;;;;24.55;12.32;;;;;;;-0.37;100.00;96497.41;5003988;28;20397;-67
2022/01/24 11:20:40;;;;;;;22.77;12.85;;;;;;;-0.39;100.00;96486.22;5002073;28;20464;-67
2022/01/24 11:23:09;;;;;;;22.13;12.60;;;;;;;-0.35;100.00;96486.72;5008660;28;20026;-68
2022/01/24 11:25:42;;;;;;;26.55;12.90;;;;;;;-0.34;100.00;96481.28;4992439;28;20377;-68
2022/01/24 11:28:10;;;;;;;22.25;12.40;;;;;;;-0.28;100.00;96481.63;4992371;28;20037;-68
2022/01/24 11:30:54;;;;;;;23.20;12.43;;;;;;;-0.30;100.00;96476.53;4993639;28;20520;-68
2022/01/24 11:33:31;;;;;;;22.08;12.10;;;;;;;-0.29;100.00;96475.53;4994137;28;20062;-67
2022/01/24 11:36:01;;;;;;;23.85;12.88;;;;;;;-0.28;100.00;96471.91;5012442;23;20054;-63
2022/01/24 11:38:26;;;;;;;22.85;12.15;;;;;;;-0.28;100.00;96473.72;5025809;28;20072;-62
2022/01/24 11:40:59;;;;;;;24.95;13.15;;;;;;;-0.33;100.00;96472.41;5031613;28;20053;-61
2022/01/24 11:43:26;;;;;;;24.48;12.88;;;;;;;-0.36;100.00;96462.19;5031648;28;20387;-63
2022/01/24 11:46:08;;;;;;;22.98;12.23;;;;;;;-0.35;100.00;96465.66;5029296;28;20040;-62
2022/01/24 11:48:36;;;;;;;20.20;11.75;;;;;;;-0.27;100.00;96468.28;5013631;28;20554;-62
2022/01/24 11:51:12;;;;;;;22.10;11.93;;;;;;;-0.25;100.00;96452.34;5014265;28;20490;-63
2022/01/24 11:53:48;;;;;;;22.92;12.30;;;;;;;-0.20;100.00;96456.13;5014615;28;20034;-63
2022/01/24 11:56:27;;;;;;;23.02;12.45;;;;;;;-0.14;100.00;96450.19;5012574;28;20116;-63
2022/01/24 11:59:22;;;;;;;25.88;13.45;;;;;;;-0.25;100.00;96442.63;4996094;28;20030;-62
2022/01/24 12:02:04;;;;;;;22.83;12.32;;;;;;;-0.27;100.00;96444.59;5018747;28;20041;-65
2022/01/24 12:04:52;;;;;;;22.48;12.38;;;;;;;-0.26;100.00;96437.53;5015992;28;20021;-66
2022/01/24 12:07:20;;;;;;;21.27;11.70;;;;;;;-0.20;100.00;96442.16;5031419;28;20044;-66
2022/01/24 12:09:46;;;;;;;22.95;12.15;;;;;;;-0.22;100.00;96436.19;5017356;28;20057;-66
2022/01/24 12:12:48;;;;;;;23.48;12.48;;;;;;;-0.16;100.00;96431.09;4994783;28;20065;-66
2022/01/24 12:15:38;;;;;;;23.27;11.57;;;;;;;-0.08;100.00;96423.22;5033114;28;20368;-66
2022/01/24 12:18:23;;;;;;;21.13;12.05;;;;;;;-0.07;100.00;96422.22;5032124;28;20029;-66
2022/01/24 12:20:57;;;;;;;22.90;12.07;;;;;;;-0.07;100.00;96421.41;5031730;28;20026;-65
2022/01/24 12:23:27;;;;;;;25.88;12.77;;;;;;;-0.03;100.00;96420.88;5005832;28;20108;-66
2022/01/24 12:26:09;;;;;;;23.42;12.65;;;;;;;0.07;100.00;96414.63;5029141;28;20040;-66
2022/01/24 12:28:43;;;;;;;22.52;12.60;;;;;;;0.05;100.00;96406.91;5021630;28;20044;-66
2022/01/24 12:31:15;;;;;;;26.65;12.70;;;;;;;0.09;100.00;96402.09;5012066;28;20029;-66
2022/01/24 12:33:42;;;;;;;22.92;11.80;;;;;;;0.12;100.00;96401.78;5012666;28;20477;-65
2022/01/24 12:36:12;;;;;;;23.45;12.18;;;;;;;0.13;100.00;96392.91;5011843;28;20770;-66
2022/01/24 12:38:41;;;;;;;25.55;12.40;;;;;;;0.18;100.00;96388.75;5020747;28;20732;-66
2022/01/24 12:41:26;;;;;;;23.00;12.20;;;;;;;0.16;100.00;96390.75;4995087;28;20026;-66
2022/01/24 12:46:26;;;;;;;23.45;12.43;;;;;;;0.19;100.00;96376.41;5023680;28;20018;-66
2022/01/24 12:48:54;;;;;;;22.63;12.65;;;;;;;0.20;100.00;96378.84;5013879;28;20028;-66
2022/01/24 12:51:22;;;;;;;22.83;12.48;;;;;;;0.19;100.00;96374.59;5012978;28;20036;-66
2022/01/24 12:53:49;;;;;;;21.77;12.23;;;;;;;0.18;100.00;96378.22;5024181;28;20029;-66
2022/01/24 12:56:16;;;;;;;21.08;11.82;;;;;;;0.18;100.00;96370.31;5012299;28;20022;-66
2022/01/24 12:58:44;;;;;;;24.95;12.80;;;;;;;0.19;100.00;96364.03;5013731;28;20025;-67
2022/01/24 13:01:30;;;;;;;23.75;12.48;;;;;;;0.17;100.00;96357.31;5022822;28;20030;-65
2022/01/24 13:04:14;;;;;;;20.95;11.02;;;;;;;0.17;100.00;96359.94;4994504;28;20030;-67
2022/01/24 13:06:43;;;;;;;21.33;11.10;;;;;;;0.26;100.00;96358.94;5020437;28;20079;-65
2022/01/24 13:09:24;;;;;;;21.95;12.38;;;;;;;0.37;100.00;96358.56;5010458;28;20034;-67
2022/01/24 13:12:00;;;;;;;27.15;12.75;;;;;;;0.44;100.00;96359.53;5012091;28;20381;-66
2022/01/24 13:14:58;;;;;;;23.42;11.95;;;;;;;0.48;100.00;96347.66;5008561;28;20022;-67
2022/01/24 13:22:58;;;;;;;23.02;12.38;;;;;;;0.42;100.00;96339.59;5019071;28;20051;-65
2022/01/24 13:25:36;;;;;;;25.90;13.00;;;;;;;0.43;100.00;96339.41;5009157;28;20137;-66
2022/01/24 13:28:13;;;;;;;20.65;12.27;;;;;;;0.41;100.00;96341.41;5008301;28;20033;-66
2022/01/24 13:30:47;;;;;;;23.90;12.63;;;;;;;0.39;100.00;96339.94;4988857;28;20495;-65
2022/01/24 13:33:19;;;;;;;25.48;12.77;;;;;;;0.37;100.00;96334.84;5011778;28;20025;-66
2022/01/24 13:36:21;;;;;;;22.13;12.02;;;;;;;0.42;100.00;96332.50;4994865;28;20515;-66